Alaska Titan — WDE4789 — position and weather

sailwx.info

Track history (hours):
 
Tides and Currents Weather Stations Pressure Air Temp Water Temp Dewpoint Dewpoint Depression Visibility Wind Speed Wind Dir Waves Ship Positions

Alaska Titan

Owner: WESTERN TOWBOAT CO, Seattle, WA. More information available from US FCC via Universal Licensing System and Coast Guard Vessel Documentation Center.

Last reported at 2015-Mar-06 10:32 UTC. Time now 2015-Mar-06 11:05 UTC.
Position N 50°49' W 127°15'.

Length 40 m; draft 6 m.

Type: Tow > 200 m length. MMSI: 367357890.

Date/timePositionNaut miles runAvg speedWind from/ knotsBaromVisibWave heightAir tempDewpointWater temp
2015-Mar-06 10:32N 50°49' W 127°15'9 9.4
2015-Mar-06 09:33N 50°44' W 127°02'9 8.9
2015-Mar-06 08:31N 50°39' W 126°50'87 8.7
2015-Mar-05 22:29N 49°50' W 124°57'30 9.8
2015-Mar-05 19:24N 49°33' W 124°19'8 9.5
2015-Mar-05 18:33N 49°29' W 124°08'10 9.4
2015-Mar-05 17:30N 49°24' W 123°55'9 9.1
2015-Mar-05 16:33N 49°19' W 123°44'9 9.1
2015-Mar-05 15:33N 49°12' W 123°34'9 9.3
2015-Mar-05 14:33N 49°06' W 123°24'9 9.1
2015-Mar-05 13:33N 49°00' W 123°14'9 9.1
2015-Mar-05 12:33N 48°54' W 123°03'10 9.9
2015-Mar-05 11:33N 48°48' W 122°52'9 9.5
2015-Mar-05 10:33N 48°40' W 122°44'1110.9
2015-Mar-05 09:33N 48°29' W 122°44'25 8.4
2015-Mar-05 06:33N 48°04' W 122°38'1010.3
2015-Mar-05 05:33N 47°56' W 122°30'810.0
2015-Mar-05 04:45N 47°48' W 122°26'2 9.9
2015-Mar-05 04:33N 47°46' W 122°26'0 9.9
2015-Mar-05 04:31N 47°46' W 122°26'9 9.1
2015-Mar-05 03:33N 47°37' W 122°25'1 9.5
2015-Mar-05 03:30N 47°37' W 122°24'3 2.7
2015-Mar-05 02:33N 47°35' W 122°21'0 0.0
2015-Mar-05 02:30N 47°35' W 122°21'0 0.0
2015-Mar-05 01:33N 47°35' W 122°21'0 0.0
2015-Mar-05 01:30N 47°35' W 122°21'1 0.7
2015-Mar-05 00:33N 47°35' W 122°22'0 0.4
2015-Mar-05 00:30N 47°35' W 122°22'1 0.7
2015-Mar-04 23:33N 47°35' W 122°21'0 3.0
2015-Mar-04 23:30N 47°36' W 122°21'5 5.0
2015-Mar-04 22:33N 47°40' W 122°24'0 0.0
2015-Mar-04 22:30N 47°40' W 122°24'2 1.6
2015-Mar-04 21:33N 47°39' W 122°22'0 0.1
2015-Mar-04 21:30N 47°39' W 122°22'0 0.0
2015-Mar-04 20:33N 47°39' W 122°22'0 0.1
2015-Mar-04 20:30N 47°39' W 122°22'0 0.0
2015-Mar-04 19:33N 47°39' W 122°22'0 0.0
2015-Mar-04 19:30N 47°39' W 122°22'0 0.0
2015-Mar-04 18:33N 47°39' W 122°22'0 0.0
2015-Mar-04 18:30N 47°39' W 122°22'  
2015-Mar-01 01:15N 47°39' W 122°22'0 0.0
2015-Mar-01 01:12N 47°39' W 122°22'2 3.3
2015-Mar-01 00:33N 47°40' W 122°25'4 7.5
2015-Feb-28 23:57N 47°36' W 122°22'1 2.9
2015-Feb-28 23:33N 47°35' W 122°21'1 1.5
2015-Feb-28 22:57N 47°36' W 122°22'3 8.7
2015-Feb-28 22:33N 47°38' W 122°26'0 9.8
2015-Feb-28 22:32N 47°38' W 122°27'1010.0
2015-Feb-28 21:33N 47°48' W 122°28'010.0
2015-Feb-28 21:31N 47°48' W 122°28'9 9.9
2015-Feb-28 20:33N 47°57' W 122°34'22 9.5
2015-Feb-28 18:11N 48°17' W 122°48'710.3
2015-Feb-28 17:32N 48°23' W 122°45'1010.5
2015-Feb-28 16:33N 48°34' W 122°45'1010.2
2015-Feb-28 15:33N 48°44' W 122°46'10 9.6
2015-Feb-28 14:33N 48°49' W 122°58'1010.4
2015-Feb-28 13:33N 48°56' W 123°10'1110.5
2015-Feb-28 12:33N 49°03' W 123°23'1010.1
2015-Feb-28 11:33N 49°10' W 123°33'10 9.7
2015-Feb-28 10:33N 49°17' W 123°43'10 9.7
2015-Feb-28 09:32N 49°23' W 123°55'10 9.8
2015-Feb-28 08:28N 49°29' W 124°09'10 9.4
2015-Feb-28 07:27N 49°34' W 124°21'10 9.9
2015-Feb-28 06:27N 49°39' W 124°34'1210.1
2015-Feb-28 05:13N 49°47' W 124°50'93 7.3
2015-Feb-27 16:29N 50°39' W 126°49'9 9.4
2015-Feb-27 15:30N 50°43' W 127°02'9 9.9
2015-Feb-27 14:33N 50°49' W 127°14'10 9.9
2015-Feb-27 13:33N 50°56' W 127°26'9 9.5
2015-Feb-27 12:33N 51°02' W 127°37'10 9.6
2015-Feb-27 11:33N 51°08' W 127°49'313 9.0
2015-Feb-26 01:00N 55°36' W 132°18'120 6.3 160 / 81025.7 5.4 6.1
2015-Feb-25 06:00N 57°06' W 134°42'6110.1 270 / 51028.810.8 0.5 6.7
2015-Feb-25 00:00N 58°06' W 135°00'26 9.6 300 / 101029.510.8 0.5 6.7
2015-Feb-24 21:15N 58°18' W 135°44'710.3
2015-Feb-24 20:33N 58°16' W 135°58'17 6.6
2015-Feb-24 18:00N 58°18' W 136°30'   300 / 201028.410.8 0.5 6.7
Track history (hours):
 
Tides and Currents Weather Stations Pressure Air Temp Water Temp Dewpoint Dewpoint Depression Visibility Wind Speed Wind Dir Waves Ship Positions

Alaska Titan

Owner: WESTERN TOWBOAT CO, Seattle, WA. More information available from US FCC via Universal Licensing System and Coast Guard Vessel Documentation Center.

Last reported at 2015-Mar-06 10:32 UTC. Time now 2015-Mar-06 11:06 UTC.
Position N 50°49' W 127°15'.

Length 40 m; draft 6 m.

Type: Tow > 200 m length. MMSI: 367357890.

Date/timePositionNaut miles runAvg speedWind from/ knotsBaromVisibWave heightAir tempDewpointWater temp
2015-Mar-06 10:32N 50°49' W 127°15'9 9.4
2015-Mar-06 09:33N 50°44' W 127°02'9 8.9
2015-Mar-06 08:31N 50°39' W 126°50'87 8.7
2015-Mar-05 22:29N 49°50' W 124°57'30 9.8
2015-Mar-05 19:24N 49°33' W 124°19'8 9.5
2015-Mar-05 18:33N 49°29' W 124°08'10 9.4
2015-Mar-05 17:30N 49°24' W 123°55'9 9.1
2015-Mar-05 16:33N 49°19' W 123°44'9 9.1
2015-Mar-05 15:33N 49°12' W 123°34'9 9.3
2015-Mar-05 14:33N 49°06' W 123°24'9 9.1
2015-Mar-05 13:33N 49°00' W 123°14'9 9.1
2015-Mar-05 12:33N 48°54' W 123°03'10 9.9
2015-Mar-05 11:33N 48°48' W 122°52'9 9.5
2015-Mar-05 10:33N 48°40' W 122°44'1110.9
2015-Mar-05 09:33N 48°29' W 122°44'25 8.4
2015-Mar-05 06:33N 48°04' W 122°38'1010.3
2015-Mar-05 05:33N 47°56' W 122°30'810.0
2015-Mar-05 04:45N 47°48' W 122°26'2 9.9
2015-Mar-05 04:33N 47°46' W 122°26'0 9.9
2015-Mar-05 04:31N 47°46' W 122°26'9 9.1
2015-Mar-05 03:33N 47°37' W 122°25'1 9.5
2015-Mar-05 03:30N 47°37' W 122°24'3 2.7
2015-Mar-05 02:33N 47°35' W 122°21'0 0.0
2015-Mar-05 02:30N 47°35' W 122°21'0 0.0
2015-Mar-05 01:33N 47°35' W 122°21'0 0.0
2015-Mar-05 01:30N 47°35' W 122°21'1 0.7
2015-Mar-05 00:33N 47°35' W 122°22'0 0.4
2015-Mar-05 00:30N 47°35' W 122°22'1 0.7
2015-Mar-04 23:33N 47°35' W 122°21'0 3.0
2015-Mar-04 23:30N 47°36' W 122°21'5 5.0
2015-Mar-04 22:33N 47°40' W 122°24'0 0.0
2015-Mar-04 22:30N 47°40' W 122°24'2 1.6
2015-Mar-04 21:33N 47°39' W 122°22'0 0.1
2015-Mar-04 21:30N 47°39' W 122°22'0 0.0
2015-Mar-04 20:33N 47°39' W 122°22'0 0.1
2015-Mar-04 20:30N 47°39' W 122°22'0 0.0
2015-Mar-04 19:33N 47°39' W 122°22'0 0.0
2015-Mar-04 19:30N 47°39' W 122°22'0 0.0
2015-Mar-04 18:33N 47°39' W 122°22'0 0.0
2015-Mar-04 18:30N 47°39' W 122°22'  
2015-Mar-01 01:15N 47°39' W 122°22'0 0.0
2015-Mar-01 01:12N 47°39' W 122°22'2 3.3
2015-Mar-01 00:33N 47°40' W 122°25'4 7.5
2015-Feb-28 23:57N 47°36' W 122°22'1 2.9
2015-Feb-28 23:33N 47°35' W 122°21'1 1.5
2015-Feb-28 22:57N 47°36' W 122°22'3 8.7
2015-Feb-28 22:33N 47°38' W 122°26'0 9.8
2015-Feb-28 22:32N 47°38' W 122°27'1010.0
2015-Feb-28 21:33N 47°48' W 122°28'010.0
2015-Feb-28 21:31N 47°48' W 122°28'9 9.9
2015-Feb-28 20:33N 47°57' W 122°34'22 9.5
2015-Feb-28 18:11N 48°17' W 122°48'710.3
2015-Feb-28 17:32N 48°23' W 122°45'1010.5
2015-Feb-28 16:33N 48°34' W 122°45'1010.2
2015-Feb-28 15:33N 48°44' W 122°46'10 9.6
2015-Feb-28 14:33N 48°49' W 122°58'1010.4
2015-Feb-28 13:33N 48°56' W 123°10'1110.5
2015-Feb-28 12:33N 49°03' W 123°23'1010.1
2015-Feb-28 11:33N 49°10' W 123°33'10 9.7
2015-Feb-28 10:33N 49°17' W 123°43'10 9.7
2015-Feb-28 09:32N 49°23' W 123°55'10 9.8
2015-Feb-28 08:28N 49°29' W 124°09'10 9.4
2015-Feb-28 07:27N 49°34' W 124°21'10 9.9
2015-Feb-28 06:27N 49°39' W 124°34'1210.1
2015-Feb-28 05:13N 49°47' W 124°50'93 7.3
2015-Feb-27 16:29N 50°39' W 126°49'9 9.4
2015-Feb-27 15:30N 50°43' W 127°02'9 9.9
2015-Feb-27 14:33N 50°49' W 127°14'10 9.9
2015-Feb-27 13:33N 50°56' W 127°26'9 9.5
2015-Feb-27 12:33N 51°02' W 127°37'10 9.6
2015-Feb-27 11:33N 51°08' W 127°49'313 9.0
2015-Feb-26 01:00N 55°36' W 132°18'120 6.3 160 / 81025.7 5.4 6.1
2015-Feb-25 06:00N 57°06' W 134°42'6110.1 270 / 51028.810.8 0.5 6.7
2015-Feb-25 00:00N 58°06' W 135°00'26 9.6 300 / 101029.510.8 0.5 6.7
2015-Feb-24 21:15N 58°18' W 135°44'710.3
2015-Feb-24 20:33N 58°16' W 135°58'17 6.6
2015-Feb-24 18:00N 58°18' W 136°30'   300 / 201028.410.8 0.5 6.7

Dump ship's entire track history